DW5978 Whyalla SA AU current weather conditions

sailwx.info

Wind from 207 at 6 knots gusting 12

Air temperature 11.1° C
Dewpoint 8.7° C

Last reported at 2015-Aug-01 12:48 UTC.
Time now 2015-Aug-01 13:50 UTC

Location: S 33°01' E 137°32'.
View on Google Maps.

See reports from other nearby stations

  
Tides and Currents Weather Stations Pressure Air Temp Water Temp Dewpoint Dewpoint Depression Visibility Wind Speed Wind Dir Waves Ship Positions
date/time (UTC)wind fromknots sea level pressurealtimeterstation pressurevisibilityair tempwater tempwave heightnotes
2015-Aug-01 12:48 207 6 gusting 12 11.1
2015-Aug-01 12:34 221 6 gusting 12 11.1
2015-Aug-01 12:18 181 4 gusting 10 11.1
2015-Aug-01 12:03 187 3 gusting 7 11.1
2015-Aug-01 11:48 232 5 gusting 9 11.1
2015-Aug-01 11:33 179 4 gusting 8 11.1
2015-Aug-01 11:18 154 5 gusting 10 11.1
2015-Aug-01 11:03 140 4 gusting 13 11.1
2015-Aug-01 10:48 142 5 gusting 10 11.1
2015-Aug-01 10:33 160 5 gusting 12 11.1
2015-Aug-01 10:18 193 6 gusting 15 11.1
2015-Aug-01 10:03 153 6 gusting 12 11.1
2015-Aug-01 09:48 205 5 gusting 10 11.1
2015-Aug-01 09:33 148 4 gusting 10 11.7
2015-Aug-01 09:18 183 4 gusting 9 11.7
2015-Aug-01 09:03 160 6 gusting 11 11.7
2015-Aug-01 08:48 121 5 gusting 13 12.2
2015-Aug-01 08:32 201 6 gusting 11 12.2
2015-Aug-01 08:17 150 5 gusting 8 12.2
2015-Aug-01 08:02 185 4 gusting 10 12.8
2015-Aug-01 07:47 162 4 gusting 11 12.8
2015-Aug-01 07:32 199 5 gusting 12 12.8
2015-Aug-01 07:17 197 5 gusting 10 12.8
2015-Aug-01 07:02 148 5 gusting 9 12.8
2015-Aug-01 06:47 154 5 gusting 10 12.8
2015-Aug-01 06:32 180 4 gusting 10 12.8
2015-Aug-01 06:17 132 6 gusting 9 12.8
2015-Aug-01 06:02 162 3 gusting 10 12.8
2015-Aug-01 05:47 160 3 gusting 10 12.8
2015-Aug-01 05:32 132 6 gusting 10 12.8
2015-Aug-01 05:17 126 7 gusting 12 12.8
2015-Aug-01 05:02 181 6 gusting 10 12.8
2015-Aug-01 04:47 162 3 gusting 9 12.8
2015-Aug-01 04:32 142 5 gusting 10 12.8
2015-Aug-01 04:17 108 4 gusting 9 12.2
2015-Aug-01 04:02 138 3 gusting 11 12.2
2015-Aug-01 03:47 150 4 gusting 7 12.2
2015-Aug-01 03:32 108 3 gusting 13 11.7
2015-Aug-01 03:17 133 4 gusting 12 11.7
2015-Aug-01 03:02 145 6 gusting 13 12.2
2015-Aug-01 02:47 145 4 gusting 11 12.2
2015-Aug-01 02:32 180 4 gusting 12 11.7
2015-Aug-01 02:17 181 3 gusting 7 11.7
2015-Aug-01 02:02 212 5 gusting 8 11.1
2015-Aug-01 01:47 212 5 gusting 9 11.1
2015-Aug-01 01:32 142 3 gusting 10 11.1
2015-Aug-01 01:17 148 5 gusting 10 11.1
2015-Aug-01 01:02 173 2 gusting 9 11.1
2015-Aug-01 00:47 170 5 gusting 13 11.1
2015-Aug-01 00:32 162 5 gusting 11 11.1
2015-Aug-01 00:17 157 6 gusting 11 11.1
2015-Aug-01 00:02 167 4 gusting 8 11.1
2015-Jul-31 23:47 231 4 gusting 11 11.1
2015-Jul-31 23:32 136 4 gusting 10 11.1
2015-Jul-31 23:17 148 3 gusting 9 11.1
2015-Jul-31 23:02
2015-Jul-31 22:47
2015-Jul-31 22:32
2015-Jul-31 22:17
2015-Jul-31 22:02
2015-Jul-31 21:47
2015-Jul-31 21:31
2015-Jul-31 21:16
2015-Jul-31 21:01
2015-Jul-31 20:46
2015-Jul-31 20:31
2015-Jul-31 20:16
2015-Jul-31 20:01
2015-Jul-31 19:46
2015-Jul-31 19:31
2015-Jul-31 19:16
2015-Jul-31 19:01
2015-Jul-31 18:46
2015-Jul-31 18:31
2015-Jul-31 18:15
2015-Jul-31 18:00 316 12.8
2015-Jul-31 17:45 314 12.8
2015-Jul-31 17:30 311 0 gusting 5 12.8
2015-Jul-31 17:15 340 2 gusting 4 12.8
2015-Jul-31 17:00 296 1 gusting 3 12.8
2015-Jul-31 16:45 305 12.8
2015-Jul-31 16:30 296 1 gusting 2 12.8
2015-Jul-31 16:15 280 1 gusting 2 12.8
2015-Jul-31 16:00 044 12.8
2015-Jul-31 15:45 044 12.8
2015-Jul-31 15:31 036 0 gusting 1 12.8
2015-Jul-31 15:15 042 1 gusting 3 12.8
2015-Jul-31 15:00 294 12.8
2015-Jul-31 14:45 291 12.8
2015-Jul-31 14:15 288 12.8
2015-Jul-31 14:00 241 12.8
2015-Jul-31 13:45 201 10 gusting 15 12.8
2015-Jul-31 13:15 325 1 gusting 2 13.3
2015-Jul-31 13:00 307 14.4
2015-Jul-31 12:45 312 0 gusting 1 14.4
2015-Jul-31 12:30 312 15.0
2015-Jul-31 12:15 312 15.0
2015-Jul-31 12:00 311 15.0
2015-Jul-31 11:45 312 0 gusting 1 15.0
2015-Jul-31 11:30 305 15.0
2015-Jul-31 11:15 305 13.9
2015-Jul-31 11:00 307 13.9
2015-Jul-31 10:45 307 13.9
2015-Jul-31 10:30 308 1 gusting 3 13.3
2015-Jul-31 10:15 314 1 gusting 3 13.3
2015-Jul-31 10:00 323 1 gusting 4 13.3
2015-Jul-31 09:45 328 1 gusting 5 13.3
2015-Jul-31 09:30 321 1 gusting 3 13.3
2015-Jul-31 09:15 319 3 gusting 6 13.3
2015-Jul-31 09:00 311 3 gusting 6 13.9
2015-Jul-31 08:45 319 6 gusting 11 18.3
2015-Jul-31 08:30 323 3 gusting 7 18.3
2015-Jul-31 08:15 322 6 gusting 11 18.9
2015-Jul-31 08:00 307 6 gusting 12 19.4
2015-Jul-31 07:45 296 6 gusting 12 20.0
2015-Jul-31 07:30 282 6 gusting 12 20.6
2015-Jul-31 07:15 300 9 gusting 16 20.6
2015-Jul-31 07:00 318 6 gusting 14 21.1
2015-Jul-31 06:45 318 7 gusting 13 21.1
2015-Jul-31 06:30 311 10 gusting 15 21.1
2015-Jul-31 06:14 344 6 gusting 13 21.1
2015-Jul-31 05:59 300 7 gusting 19 21.7
2015-Jul-31 05:44 328 9 gusting 17 21.1
2015-Jul-31 05:29 355 6 gusting 12 20.6
2015-Jul-31 05:14 330 9 gusting 15 20.6
2015-Jul-31 05:00 350 9 gusting 15 20.6
2015-Jul-31 04:44 339 7 gusting 14 20.0
2015-Jul-31 04:29 293 8 gusting 16 19.4
2015-Jul-31 04:14 305 11 gusting 15 19.4
2015-Jul-31 03:59 330 8 gusting 19 19.4
2015-Jul-31 03:44 314 8 gusting 15 18.9
2015-Jul-31 03:29 319 7 gusting 15 18.9
2015-Jul-31 03:14 341 12 gusting 15 18.3
2015-Jul-31 02:59 307 6 gusting 14 18.3
2015-Jul-31 02:44 353 6 gusting 12 17.8
2015-Jul-31 02:29 339 7 gusting 12 17.8
2015-Jul-31 02:14 308 6 gusting 11 17.2
2015-Jul-31 01:59 008 3 gusting 9 16.7
2015-Jul-31 01:44 357 5 gusting 10 16.7
2015-Jul-31 01:29 027 5 gusting 6 16.1
2015-Jul-31 01:13 037 3 gusting 7 15.6
2015-Jul-31 00:58 039 5 gusting 7 13.9
2015-Jul-31 00:43 037 6 gusting 8 13.3
2015-Jul-31 00:28 080 4 gusting 7 12.2
2015-Jul-31 00:13 056 3 gusting 5 11.7
2015-Jul-30 23:58 041 1 gusting 4 11.7
2015-Jul-30 23:43 036 0 gusting 3 11.7
2015-Jul-30 23:28 314 11.7
2015-Jul-30 23:13 300 1 gusting 2 10.6
2015-Jul-30 22:58 315 0 gusting 3 10.0
2015-Jul-30 22:43 336 2 gusting 4 8.9
2015-Jul-30 22:28 296 1 gusting 3 8.3
2015-Jul-30 22:13 302 1 gusting 3 7.8
2015-Jul-30 21:58
2015-Jul-30 21:43
2015-Jul-30 21:28
2015-Jul-30 21:13
2015-Jul-30 20:58
2015-Jul-30 20:43
2015-Jul-30 20:27
2015-Jul-30 20:12
2015-Jul-30 19:57
2015-Jul-30 19:42
2015-Jul-30 19:27
2015-Jul-30 19:12
2015-Jul-30 18:57
2015-Jul-30 18:42 204 9.4
2015-Jul-30 18:27 204 9.4
2015-Jul-30 18:12 204 9.4
2015-Jul-30 17:57 204 9.4
2015-Jul-30 17:42 204 9.4
2015-Jul-30 17:27 205 8.9
2015-Jul-30 17:12 205 8.9
2015-Jul-30 16:57 204 0 gusting 1 9.4
2015-Jul-30 16:42 201 9.4
2015-Jul-30 16:27 201 9.4
2015-Jul-30 16:12 201 9.4
2015-Jul-30 15:57 201 9.4
2015-Jul-30 15:42 201 8.9
2015-Jul-30 15:27 201 9.4
2015-Jul-30 15:12 201 9.4
2015-Jul-30 14:57 201 9.4
2015-Jul-30 14:42 201 9.4
2015-Jul-30 14:27 201 10.0
2015-Jul-30 14:12 201 10.6
2015-Jul-30 13:57 201 11.1
2015-Jul-30 13:41 200 0 gusting 3 11.7
2015-Jul-30 13:26 221 1 gusting 2 11.7
2015-Jul-30 13:11 215 0 gusting 2 11.1